createdAt,value
2018-03-02T00:00:07.370Z,24.37
2018-03-02T00:02:33.957Z,22.55
2018-03-02T00:05:00.490Z,25.67
2018-03-02T00:07:27.123Z,23.15
2018-03-02T00:09:53.753Z,24.10
2018-03-02T00:12:20.634Z,24.45
2018-03-02T00:14:47.205Z,26.12
2018-03-02T00:17:13.774Z,24.65
2018-03-02T00:19:40.664Z,26.27
2018-03-02T00:22:07.226Z,24.85
2018-03-02T00:24:33.847Z,25.45
2018-03-02T00:27:00.381Z,26.65
2018-03-02T00:29:27.310Z,26.55
2018-03-02T00:31:53.869Z,25.45
2018-03-02T00:34:20.766Z,24.83
2018-03-02T00:36:47.331Z,24.12
2018-03-02T00:39:13.929Z,25.25
2018-03-02T00:41:40.838Z,24.27
2018-03-02T00:44:07.401Z,24.70
2018-03-02T00:46:33.965Z,24.87
2018-03-02T00:49:00.495Z,23.67
2018-03-02T00:51:27.057Z,25.20
2018-03-02T00:53:53.620Z,26.73
2018-03-02T00:56:20.517Z,26.40
2018-03-02T00:58:47.118Z,26.87
2018-03-02T01:01:14.053Z,25.23
2018-03-02T01:03:40.614Z,25.33
2018-03-02T01:06:07.277Z,26.05
2018-03-02T01:08:34.210Z,26.60
2018-03-02T01:11:00.738Z,27.20
2018-03-02T01:13:27.302Z,28.23
2018-03-02T01:15:53.872Z,25.40
2018-03-02T01:18:20.770Z,27.67
2018-03-02T01:20:47.335Z,25.50
2018-03-02T01:23:13.899Z,26.70
2018-03-02T01:25:40.431Z,25.70
2018-03-02T01:28:07.065Z,27.00
2018-03-02T01:30:33.630Z,26.77
2018-03-02T01:33:00.212Z,24.30
2018-03-02T01:35:27.157Z,25.42
2018-03-02T01:37:53.726Z,29.17
2018-03-02T01:40:20.666Z,25.80
2018-03-02T01:42:47.284Z,25.75
2018-03-02T01:45:13.902Z,28.45
2018-03-02T01:47:40.478Z,27.02
2018-03-02T01:50:07.044Z,27.02
2018-03-02T01:52:33.668Z,28.10
2018-03-02T01:55:00.198Z,26.12
2018-03-02T01:57:26.793Z,26.70
2018-03-02T01:59:53.357Z,28.77
2018-03-02T02:02:20.250Z,26.45
2018-03-02T02:04:46.805Z,26.70
2018-03-02T02:07:13.401Z,26.35
2018-03-02T02:09:39.946Z,27.20
2018-03-02T02:12:06.504Z,27.00
2018-03-02T02:14:33.442Z,26.25
2018-03-02T02:16:59.974Z,27.33
2018-03-02T02:19:26.538Z,26.37
2018-03-02T02:21:53.137Z,28.48
2018-03-02T02:24:19.673Z,30.10
2018-03-02T02:26:46.236Z,26.17
2018-03-02T02:29:12.798Z,27.87
2018-03-02T02:31:39.326Z,27.15
2018-03-02T02:34:05.895Z,27.58
2018-03-02T02:36:32.454Z,27.95
2018-03-02T02:38:58.985Z,27.02
2018-03-02T02:41:25.544Z,25.17
2018-03-02T02:43:52.118Z,28.90
2018-03-02T02:46:19.026Z,27.85
2018-03-02T02:48:45.598Z,28.38
2018-03-02T02:51:12.162Z,28.58
2018-03-02T02:53:38.700Z,27.02
2018-03-02T02:56:05.263Z,29.48
2018-03-02T02:58:32.198Z,29.20
2018-03-02T03:00:58.741Z,28.42
2018-03-02T03:03:25.289Z,27.42
2018-03-02T03:05:51.853Z,27.05
2018-03-02T03:08:18.417Z,27.90
2018-03-02T03:10:45.345Z,28.62
2018-03-02T03:13:11.912Z,28.70
2018-03-02T03:15:38.848Z,28.62
2018-03-02T03:18:05.421Z,28.67
2018-03-02T03:20:32.349Z,28.38
2018-03-02T03:22:58.868Z,27.85
2018-03-02T03:25:25.422Z,27.30
2018-03-02T03:27:51.984Z,28.35
2018-03-02T03:30:18.514Z,27.30
2018-03-02T03:32:45.080Z,27.98
2018-03-02T03:35:11.641Z,29.10
2018-03-02T03:37:38.196Z,28.87
2018-03-02T03:40:04.793Z,26.42
2018-03-02T03:42:31.454Z,28.48
2018-03-02T03:44:57.994Z,29.58
2018-03-02T03:47:24.568Z,27.77
2018-03-02T03:49:51.218Z,28.25
2018-03-02T03:52:17.746Z,29.80
2018-03-02T03:54:44.317Z,25.42
2018-03-02T03:57:10.895Z,28.05
2018-03-02T03:59:37.437Z,29.77
2018-03-02T04:02:04.385Z,26.77
2018-03-02T04:04:30.945Z,27.58
2018-03-02T04:06:57.937Z,28.33
2018-03-02T04:09:24.489Z,27.65
2018-03-02T04:11:51.054Z,28.25
2018-03-02T04:14:17.581Z,27.58
2018-03-02T04:16:44.141Z,29.10
2018-03-02T04:19:10.697Z,28.70
2018-03-02T04:21:37.214Z,27.50
2018-03-02T04:24:03.784Z,30.37
2018-03-02T04:26:30.345Z,27.77
2018-03-02T04:28:56.869Z,29.15
2018-03-02T04:31:23.429Z,27.90
2018-03-02T04:33:49.988Z,30.27
2018-03-02T04:36:16.569Z,29.58
2018-03-02T04:38:43.502Z,29.85
2018-03-02T04:41:10.056Z,26.52
2018-03-02T04:43:36.590Z,26.85
2018-03-02T04:46:03.181Z,30.52
2018-03-02T04:48:29.787Z,31.70
2018-03-02T04:50:56.315Z,28.45
2018-03-02T04:53:22.873Z,29.00
2018-03-02T04:55:49.441Z,31.87
2018-03-02T04:58:15.976Z,29.15
2018-03-02T05:00:42.563Z,30.77
2018-03-02T05:03:09.284Z,31.37
2018-03-02T05:05:35.809Z,26.65
2018-03-02T05:08:02.434Z,29.65
2018-03-02T05:10:29.010Z,30.35
2018-03-02T05:12:55.533Z,31.83
2018-03-02T05:15:22.093Z,29.63
2018-03-02T05:17:48.671Z,27.60
2018-03-02T05:20:15.194Z,29.70
2018-03-02T05:22:41.757Z,30.92
2018-03-02T05:25:08.312Z,30.95
2018-03-02T05:27:34.893Z,27.25
2018-03-02T05:30:01.454Z,29.30
2018-03-02T05:32:28.053Z,27.75
2018-03-02T05:34:54.606Z,28.20
2018-03-02T05:37:21.174Z,28.45
2018-03-02T05:39:48.141Z,31.02
2018-03-02T05:42:14.698Z,30.05
2018-03-02T05:44:41.258Z,30.62
2018-03-02T05:47:07.817Z,29.42
2018-03-02T05:49:34.337Z,26.67
2018-03-02T05:52:00.901Z,29.27
2018-03-02T05:54:27.468Z,28.45
2018-03-02T05:56:53.989Z,28.80
2018-03-02T05:59:20.548Z,29.02
2018-03-02T06:01:47.110Z,29.50
2018-03-02T06:04:13.645Z,28.52
2018-03-02T06:06:40.320Z,27.08
2018-03-02T06:09:06.925Z,31.58
2018-03-02T06:11:33.477Z,27.87
2018-03-02T06:14:00.070Z,29.80
2018-03-02T06:16:26.633Z,30.23
2018-03-02T06:18:53.528Z,28.55
2018-03-02T06:21:20.099Z,27.95
2018-03-02T06:23:46.666Z,29.48
2018-03-02T06:26:13.203Z,30.05
2018-03-02T06:28:39.766Z,30.33
2018-03-02T06:31:06.350Z,31.42
2018-03-02T06:33:32.917Z,30.00
2018-03-02T06:35:59.482Z,29.80
2018-03-02T06:38:26.038Z,31.58
2018-03-02T06:40:52.617Z,29.25
2018-03-02T06:43:19.546Z,30.00
2018-03-02T06:45:46.107Z,33.05
2018-03-02T06:48:12.636Z,29.25
2018-03-02T06:50:39.201Z,29.90
2018-03-02T06:53:05.761Z,27.92
2018-03-02T06:55:32.664Z,27.50
2018-03-02T06:57:59.266Z,27.58
2018-03-02T07:00:26.198Z,28.42
2018-03-02T07:02:52.726Z,30.05
2018-03-02T07:05:19.310Z,30.12
2018-03-02T07:07:45.904Z,28.60
2018-03-02T07:10:12.432Z,30.98
2018-03-02T07:12:38.988Z,27.13
2018-03-02T07:15:05.553Z,30.85
2018-03-02T07:17:32.078Z,29.55
2018-03-02T07:19:58.641Z,28.33
2018-03-02T07:22:25.197Z,27.15
2018-03-02T07:24:51.732Z,27.80
2018-03-02T07:27:18.317Z,29.87
2018-03-02T07:29:44.885Z,27.75
2018-03-02T07:32:11.792Z,27.27
2018-03-02T07:34:38.350Z,28.67
2018-03-02T07:37:04.913Z,25.42
2018-03-02T07:39:31.462Z,28.60
2018-03-02T07:41:58.061Z,28.12
2018-03-02T07:44:24.618Z,27.30
2018-03-02T07:46:51.149Z,28.80
2018-03-02T07:49:17.709Z,28.00
2018-03-02T07:51:44.277Z,27.37
2018-03-02T07:54:10.845Z,29.80
2018-03-02T07:56:37.412Z,27.92
2018-03-02T07:59:04.363Z,29.15
2018-03-02T08:01:31.273Z,27.55
2018-03-02T08:03:57.837Z,27.17
2018-03-02T08:06:24.446Z,30.50
2018-03-02T08:08:51.046Z,29.05
2018-03-02T08:11:17.623Z,26.90
2018-03-02T08:13:44.558Z,28.02
2018-03-02T08:16:11.196Z,28.20
2018-03-02T08:18:37.745Z,29.85
2018-03-02T08:21:04.372Z,29.50
2018-03-02T08:23:30.900Z,26.20
2018-03-02T08:25:57.498Z,30.17
2018-03-02T08:28:24.069Z,27.48
2018-03-02T08:30:50.968Z,29.00
2018-03-02T08:33:17.529Z,25.30
2018-03-02T08:35:44.093Z,29.40
2018-03-02T08:38:10.671Z,27.37
2018-03-02T08:40:37.278Z,28.87
2018-03-02T08:43:03.845Z,29.15
2018-03-02T08:45:30.813Z,27.67
2018-03-02T08:47:57.741Z,28.33
2018-03-02T08:50:24.305Z,29.80
2018-03-02T08:52:51.253Z,29.63
2018-03-02T08:55:17.817Z,30.95
2018-03-02T08:57:44.754Z,30.27
2018-03-02T09:00:11.337Z,29.00
2018-03-02T09:02:37.926Z,29.20
2018-03-02T09:05:04.509Z,28.60
2018-03-02T09:07:31.059Z,29.50
2018-03-02T09:09:58.038Z,27.10
2018-03-02T09:12:24.982Z,28.98
2018-03-02T09:14:51.894Z,28.20
2018-03-02T09:17:18.461Z,28.23
2018-03-02T09:19:45.060Z,29.87
2018-03-02T09:22:11.677Z,31.45
2018-03-02T09:24:38.617Z,29.90
2018-03-02T09:27:05.181Z,27.15
2018-03-02T09:29:32.090Z,29.35
2018-03-02T09:31:58.660Z,26.90
2018-03-02T09:34:25.286Z,27.58
2018-03-02T09:36:51.826Z,27.85
2018-03-02T09:39:18.397Z,28.27
2018-03-02T09:41:44.969Z,27.48
2018-03-02T09:44:11.561Z,28.42
2018-03-02T09:46:38.165Z,32.10
2018-03-02T09:49:04.729Z,26.90
2018-03-02T09:51:31.634Z,28.10
2018-03-02T09:53:58.211Z,28.33
2018-03-02T09:56:24.777Z,29.65
2018-03-02T09:58:51.673Z,31.17
2018-03-02T10:01:18.234Z,28.15
2018-03-02T10:03:44.798Z,29.42
2018-03-02T10:06:11.337Z,30.33
2018-03-02T10:08:37.969Z,28.50
2018-03-02T10:11:04.613Z,29.92
2018-03-02T10:13:31.181Z,28.23
2018-03-02T10:15:57.737Z,29.75
2018-03-02T10:18:24.301Z,29.50
2018-03-02T10:20:50.826Z,29.37
2018-03-02T10:23:17.385Z,29.55
2018-03-02T10:25:43.977Z,30.95
2018-03-02T10:28:10.528Z,29.05
2018-03-02T10:30:37.106Z,30.73
2018-03-02T10:33:03.718Z,32.40
2018-03-02T10:35:30.314Z,29.45
2018-03-02T10:37:56.882Z,32.38
2018-03-02T10:40:23.895Z,31.05
2018-03-02T10:42:50.477Z,30.23
2018-03-02T10:45:17.041Z,30.40
2018-03-02T10:47:44.065Z,32.35
2018-03-02T10:50:10.589Z,30.25
2018-03-02T10:52:37.145Z,30.02
2018-03-02T10:55:03.711Z,27.80
2018-03-02T10:57:30.249Z,31.58
2018-03-02T10:59:56.813Z,29.23
2018-03-02T11:02:25.282Z,31.48
2018-03-02T11:04:57.991Z,27.48
2018-03-02T11:07:24.597Z,29.20
2018-03-02T11:09:51.205Z,28.95
2018-03-02T11:12:17.765Z,29.50
2018-03-02T11:14:44.698Z,27.00
2018-03-02T11:17:11.242Z,28.17
2018-03-02T11:19:37.813Z,29.73
2018-03-02T11:22:04.749Z,29.92
2018-03-02T11:24:31.289Z,27.87
2018-03-02T11:26:57.861Z,28.55
2018-03-02T11:29:24.421Z,27.90
2018-03-02T11:31:51.378Z,29.58
2018-03-02T11:34:18.337Z,30.05
2018-03-02T11:36:45.265Z,29.20
2018-03-02T11:39:11.793Z,27.58
2018-03-02T11:41:38.360Z,29.40
2018-03-02T11:44:04.926Z,29.17
2018-03-02T11:46:31.860Z,28.33
2018-03-02T11:48:58.425Z,27.50
2018-03-02T11:51:25.355Z,28.62
2018-03-02T11:53:51.887Z,26.40
2018-03-02T11:56:18.449Z,29.00
2018-03-02T11:58:45.041Z,29.77
2018-03-02T12:01:11.568Z,28.95
2018-03-02T12:03:38.502Z,29.92
2018-03-02T12:06:05.085Z,33.65
2018-03-02T12:08:32.058Z,28.05
2018-03-02T12:10:58.628Z,28.17
2018-03-02T12:13:25.234Z,29.27
2018-03-02T12:15:52.133Z,32.53
2018-03-02T12:18:18.812Z,31.77
2018-03-02T12:20:45.425Z,29.73
2018-03-02T12:23:11.969Z,28.90
2018-03-02T12:25:38.541Z,29.48
2018-03-02T12:28:05.102Z,29.00
2018-03-02T12:30:31.637Z,31.10
2018-03-02T12:32:58.205Z,30.08
2018-03-02T12:35:24.768Z,29.20
2018-03-02T12:37:51.666Z,29.77
2018-03-02T12:40:18.226Z,29.77
2018-03-02T12:42:44.782Z,28.50
2018-03-02T12:45:11.309Z,28.90
2018-03-02T12:47:37.885Z,28.77
2018-03-02T12:50:04.455Z,30.67
2018-03-02T12:52:31.369Z,30.05
2018-03-02T12:54:57.929Z,28.52
2018-03-02T12:57:24.533Z,31.30
2018-03-02T12:59:51.064Z,31.58
2018-03-02T13:02:18.003Z,29.73
2018-03-02T13:04:44.569Z,34.47
2018-03-02T13:07:11.470Z,29.77
2018-03-02T13:09:38.069Z,32.13
2018-03-02T13:12:05.002Z,29.55
2018-03-02T13:14:31.540Z,29.25
2018-03-02T13:16:58.121Z,30.85
2018-03-02T13:19:25.065Z,32.15
2018-03-02T13:21:51.969Z,30.70
2018-03-02T13:24:18.545Z,32.25
2018-03-02T13:26:57.281Z,31.23
2018-03-02T13:29:23.853Z,32.83
2018-03-02T13:31:50.429Z,35.83
2018-03-02T13:34:29.428Z,34.08
2018-03-02T13:36:56.076Z,30.98
2018-03-02T13:39:34.937Z,30.75
2018-03-02T13:42:16.757Z,32.25
2018-03-02T13:44:43.318Z,33.22
2018-03-02T13:47:09.884Z,32.38
2018-03-02T13:49:48.718Z,33.38
2018-03-02T13:52:15.425Z,32.85
2018-03-02T13:54:41.973Z,35.47
2018-03-02T14:00:13.153Z,33.63
2018-03-02T14:02:52.430Z,30.50
2018-03-02T14:05:18.992Z,33.70
2018-03-02T14:07:45.517Z,34.10
2018-03-02T14:10:12.202Z,33.20
2018-03-02T14:12:38.765Z,33.55
2018-03-02T14:15:05.294Z,32.10
2018-03-02T14:17:31.882Z,31.45
2018-03-02T14:19:58.866Z,33.13
2018-03-02T14:22:25.394Z,35.03
2018-03-02T14:24:52.385Z,31.05
2018-03-02T14:27:18.990Z,31.65
2018-03-02T14:29:45.525Z,33.50
2018-03-02T14:32:12.090Z,32.55
2018-03-02T14:34:39.025Z,32.42
2018-03-02T14:37:05.557Z,34.42
2018-03-02T14:39:32.117Z,32.33
2018-03-02T14:41:58.680Z,32.22
2018-03-02T14:44:25.201Z,31.12
2018-03-02T14:46:51.770Z,31.10
2018-03-02T14:49:18.337Z,31.85
2018-03-02T14:51:45.238Z,30.42
2018-03-02T14:54:11.810Z,30.17
2018-03-02T14:56:38.369Z,29.42
2018-03-02T14:59:04.893Z,32.05
2018-03-02T15:01:31.474Z,31.92
2018-03-02T15:03:58.458Z,31.70
2018-03-02T15:06:24.989Z,31.35
2018-03-02T15:08:51.665Z,31.95
2018-03-02T15:11:18.229Z,33.13
2018-03-02T15:13:44.757Z,31.80
2018-03-02T15:16:11.324Z,30.70
2018-03-02T15:18:37.886Z,31.92
2018-03-02T15:21:04.421Z,33.58
2018-03-02T15:23:30.994Z,32.85
2018-03-02T15:25:57.570Z,33.75
2018-03-02T15:28:24.483Z,33.05
2018-03-02T15:30:51.049Z,31.55
2018-03-02T15:33:17.716Z,31.25
2018-03-02T15:35:44.540Z,30.17
2018-03-02T15:38:11.286Z,31.45
2018-03-02T15:40:37.855Z,31.17
2018-03-02T15:43:04.827Z,33.70
2018-03-02T15:45:31.434Z,34.50
2018-03-02T15:47:57.997Z,32.60
2018-03-02T15:50:24.561Z,30.37
2018-03-02T15:52:51.503Z,32.08
2018-03-02T15:55:18.068Z,31.45
2018-03-02T15:57:44.966Z,31.50
2018-03-02T16:00:11.573Z,32.28
2018-03-02T16:02:38.516Z,32.47
2018-03-02T16:05:05.065Z,30.88
2018-03-02T16:07:32.000Z,32.42
2018-03-02T16:09:58.588Z,32.08
2018-03-02T16:12:25.489Z,34.55
2018-03-02T16:14:52.049Z,34.03
2018-03-02T16:17:18.621Z,32.00
2018-03-02T16:19:45.149Z,32.83
2018-03-02T16:22:11.717Z,32.25
2018-03-02T16:24:38.657Z,32.42
2018-03-02T16:27:05.197Z,33.05
2018-03-02T16:29:31.756Z,32.63
2018-03-02T16:31:58.317Z,33.55
2018-03-02T16:34:25.218Z,32.05
2018-03-02T16:36:58.778Z,33.90
2018-03-02T16:39:25.717Z,32.15
2018-03-02T16:41:52.325Z,32.03
2018-03-02T16:44:18.896Z,31.27
2018-03-02T16:46:45.461Z,32.65
2018-03-02T16:49:11.994Z,30.83
2018-03-02T16:51:38.561Z,33.20
2018-03-02T16:54:05.221Z,32.40
2018-03-02T16:56:32.138Z,33.03
2018-03-02T16:58:58.709Z,30.58
2018-03-02T17:01:25.274Z,32.10
2018-03-02T17:03:51.805Z,30.40
2018-03-02T17:06:18.400Z,35.58
2018-03-02T17:08:45.010Z,29.98
2018-03-02T17:11:11.579Z,34.88
2018-03-02T17:13:38.557Z,29.58
2018-03-02T17:16:05.115Z,35.45
2018-03-02T17:21:32.962Z,33.72
2018-03-02T17:23:59.528Z,35.72
2018-03-02T17:26:26.477Z,37.17
2018-03-02T17:28:53.013Z,42.55
2018-03-02T17:31:19.651Z,40.78
2018-03-02T17:33:46.194Z,38.20
2018-03-02T17:36:12.728Z,38.20
2018-03-02T17:38:39.353Z,37.33
2018-03-02T17:41:05.980Z,36.30
2018-03-02T17:43:32.873Z,38.08
2018-03-02T17:45:59.445Z,34.80
2018-03-02T17:48:26.013Z,38.30
2018-03-02T17:50:52.566Z,38.45
2018-03-02T17:53:19.125Z,36.35
2018-03-02T17:55:46.072Z,37.80
2018-03-02T17:58:12.610Z,38.03
2018-03-02T18:00:39.173Z,38.80
2018-03-02T18:03:06.109Z,34.83
2018-03-02T18:05:32.639Z,39.05
2018-03-02T18:07:59.205Z,36.95
2018-03-02T18:10:25.857Z,36.50
2018-03-02T18:12:52.473Z,40.80
2018-03-02T18:15:19.074Z,37.28
2018-03-02T18:17:46.017Z,39.05
2018-03-02T18:20:12.569Z,38.17
2018-03-02T18:22:39.557Z,39.95
2018-03-02T18:25:06.117Z,41.55
2018-03-02T18:27:32.687Z,40.40
2018-03-02T18:29:59.258Z,37.58
2018-03-02T18:32:25.829Z,37.60
2018-03-02T18:34:52.738Z,39.63
2018-03-02T18:37:19.298Z,37.90
2018-03-02T18:39:45.869Z,40.97
2018-03-02T18:42:12.805Z,39.35
2018-03-02T18:44:39.401Z,42.30
2018-03-02T18:47:05.987Z,38.35
2018-03-02T18:49:32.534Z,38.15
2018-03-02T18:51:59.093Z,41.75
2018-03-02T18:54:25.676Z,40.70
2018-03-02T18:56:52.587Z,39.75
2018-03-02T18:59:19.158Z,43.45
2018-03-02T19:01:45.721Z,43.33
2018-03-02T19:04:12.622Z,42.75
2018-03-02T19:06:39.189Z,42.42
2018-03-02T19:09:05.789Z,42.80
2018-03-02T19:11:32.317Z,40.35
2018-03-02T19:13:59.252Z,43.30
2018-03-02T19:16:26.173Z,44.55
2018-03-02T19:18:52.702Z,46.30
2018-03-02T19:21:19.267Z,44.35
2018-03-02T19:23:45.929Z,46.60
2018-03-02T19:26:13.265Z,44.92
2018-03-02T19:28:39.906Z,48.15
2018-03-02T19:31:06.798Z,49.25
2018-03-02T19:33:33.325Z,45.50
2018-03-02T19:35:59.885Z,44.42
2018-03-02T19:38:27.334Z,44.03
2018-03-02T19:40:53.861Z,47.15
2018-03-02T19:43:20.570Z,46.75
2018-03-02T19:45:48.061Z,46.78
2018-03-02T19:48:15.351Z,45.50
2018-03-02T19:50:41.991Z,46.75
2018-03-02T19:53:08.940Z,45.83
2018-03-02T19:55:37.365Z,44.97
2018-03-02T19:58:04.037Z,50.45
2018-03-02T20:00:30.832Z,50.38
2018-03-02T20:02:58.493Z,48.28
2018-03-02T20:05:25.053Z,46.45
2018-03-02T20:07:52.004Z,47.80
2018-03-02T20:10:18.961Z,52.30
2018-03-02T20:12:45.934Z,53.83
2018-03-02T20:15:12.986Z,55.63
2018-03-02T20:17:39.899Z,54.90
2018-03-02T20:20:06.513Z,50.92
2018-03-02T20:22:33.081Z,54.75
2018-03-02T20:25:00.172Z,50.28
2018-03-02T20:27:26.738Z,55.72
2018-03-02T20:29:53.441Z,52.60
2018-03-02T20:32:19.973Z,54.00
2018-03-02T20:34:53.361Z,53.33
2018-03-02T20:37:19.937Z,54.30
2018-03-02T20:39:46.520Z,54.20
2018-03-02T20:42:13.094Z,54.60
2018-03-02T20:44:40.031Z,52.90
2018-03-02T20:47:06.576Z,52.47
2018-03-02T20:49:33.261Z,53.25
2018-03-02T20:51:59.826Z,54.67
2018-03-02T20:54:26.373Z,51.13
2018-03-02T20:56:53.027Z,51.58
2018-03-02T20:59:20.597Z,48.30
2018-03-02T21:01:47.129Z,50.45
2018-03-02T21:04:13.745Z,51.25
2018-03-02T21:06:40.689Z,50.67
2018-03-02T21:09:07.217Z,46.50
2018-03-02T21:11:33.786Z,48.78
2018-03-02T21:14:00.350Z,51.65
2018-03-02T21:16:27.401Z,51.33
2018-03-02T21:18:53.961Z,49.85
2018-03-02T21:21:20.925Z,50.72
2018-03-02T21:23:47.455Z,51.95
2018-03-02T21:26:14.076Z,52.58
2018-03-02T21:28:41.048Z,50.28
2018-03-02T21:31:07.952Z,52.47
2018-03-02T21:33:34.513Z,52.15
2018-03-02T21:36:02.017Z,53.97
2018-03-02T21:38:28.545Z,55.28
2018-03-02T21:40:55.113Z,51.22
2018-03-02T21:43:21.669Z,58.70
2018-03-02T21:45:48.205Z,50.80
2018-03-02T21:48:15.141Z,54.83
2018-03-02T21:50:41.701Z,50.63
2018-03-02T21:53:08.332Z,49.65
2018-03-02T21:55:34.890Z,54.88
2018-03-02T21:58:01.453Z,54.38
2018-03-02T22:00:27.981Z,51.28
2018-03-02T22:02:54.549Z,52.08
2018-03-02T22:05:21.137Z,52.95
2018-03-02T22:07:47.671Z,53.90
2018-03-02T22:10:14.241Z,53.05
2018-03-02T22:12:40.833Z,57.75
2018-03-02T22:15:07.366Z,53.90
2018-03-02T22:17:33.957Z,53.55
2018-03-02T22:20:00.555Z,54.65
2018-03-02T22:22:27.102Z,54.33
2018-03-02T22:24:54.029Z,54.65
2018-03-02T22:27:20.606Z,54.42
2018-03-02T22:29:47.129Z,51.55
2018-03-02T22:32:13.693Z,48.78
2018-03-02T22:34:40.271Z,53.05
2018-03-02T22:37:06.813Z,53.42
2018-03-02T22:39:33.394Z,50.42
2018-03-02T22:41:59.965Z,51.63
2018-03-02T22:44:26.493Z,55.00
2018-03-02T22:46:53.056Z,50.33
2018-03-02T22:49:19.665Z,52.72
2018-03-02T22:51:46.557Z,55.22
2018-03-02T22:54:13.121Z,53.75
2018-03-02T22:56:39.678Z,55.78
2018-03-02T22:59:06.201Z,49.78
2018-03-02T23:01:32.769Z,51.35
2018-03-02T23:03:59.706Z,51.08
2018-03-02T23:06:26.253Z,51.63
2018-03-02T23:08:52.814Z,52.92
2018-03-02T23:11:19.373Z,54.17
2018-03-02T23:13:45.896Z,52.53
2018-03-02T23:16:12.492Z,51.33
2018-03-02T23:18:39.056Z,53.08
2018-03-02T23:21:05.572Z,48.10
2018-03-02T23:23:32.153Z,51.92
2018-03-02T23:25:58.714Z,51.58
2018-03-02T23:28:25.246Z,52.30
2018-03-02T23:30:52.183Z,49.60
2018-03-02T23:33:18.742Z,49.85
2018-03-02T23:35:45.281Z,52.95
2018-03-02T23:38:11.840Z,51.72
2018-03-02T23:40:38.402Z,53.58
2018-03-02T23:43:04.930Z,51.55
2018-03-02T23:45:31.501Z,53.13
2018-03-02T23:47:58.071Z,54.42
2018-03-02T23:50:24.609Z,54.22
2018-03-02T23:52:51.168Z,54.45
2018-03-02T23:55:17.735Z,55.95
2018-03-02T23:57:44.265Z,52.00
